AXM504 VNKT-VYMD
Flight info
| Callsign | AXM504 |
|---|---|
| Flight time | 1h 51m |
| Altitude | 39000 |
| Route | IGRIS1D AHALE R344 BIRAT A467 KHR R344 RAJ G463 CTG B465 AVDAX DCT LEGOB FR1 MIA |
| Aircraft | A20N/M-SDE2E3FGHIRWXY/LB1 |
Departure
| Time | 2026-05-05 01:10 |
|---|---|
| Airport | Tribhuvan International Airport (VNKT) |
Arrival
| Time | 2026-05-05 03:01 |
|---|---|
| Airport | Mandalay International Airport (VYMD) |
| Time | Latitude | Longitude | Altitude | Speed | Heading |
|---|---|---|---|---|---|
| 2026-05-05 00:00 | 27.69944 | 85.35785 | 4377 ft | 0 kts | 287° |
| 2026-05-05 00:45 | 27.69939 | 85.35802 | 4362 ft | 2 kts | 287° |
| 2026-05-05 00:46 | 27.69935 | 85.35820 | 4367 ft | 2 kts | 287° |
| 2026-05-05 00:46 | 27.69929 | 85.35839 | 4380 ft | 3 kts | 287° |
| 2026-05-05 00:46 | 27.69924 | 85.35858 | 4375 ft | 3 kts | 287° |
| 2026-05-05 00:46 | 27.69921 | 85.35872 | 4359 ft | 0 kts | 287° |
| 2026-05-05 00:49 | 27.69925 | 85.35855 | 4380 ft | 0 kts | 287° |
| 2026-05-05 00:49 | 27.69925 | 85.35856 | 4377 ft | 2 kts | 285° |
| 2026-05-05 00:50 | 27.69931 | 85.35846 | 4381 ft | 3 kts | 308° |
| 2026-05-05 00:50 | 27.69943 | 85.35840 | 4368 ft | 3 kts | 342° |
| 2026-05-05 00:50 | 27.69998 | 85.35867 | 4377 ft | 18 kts | 35° |
| 2026-05-05 00:50 | 27.70070 | 85.35946 | 4373 ft | 11 kts | 43° |
| 2026-05-05 00:51 | 27.70108 | 85.35985 | 4376 ft | 3 kts | 41° |
| 2026-05-05 00:51 | 27.70135 | 85.35969 | 4378 ft | 5 kts | 279° |
| 2026-05-05 00:51 | 27.70099 | 85.35928 | 4371 ft | 18 kts | 197° |
| 2026-05-05 00:51 | 27.69967 | 85.35929 | 4364 ft | 20 kts | 188° |
| 2026-05-05 00:52 | 27.69826 | 85.35876 | 4377 ft | 23 kts | 202° |
| 2026-05-05 00:52 | 27.69674 | 85.35808 | 4364 ft | 24 kts | 201° |
| 2026-05-05 00:52 | 27.69513 | 85.35735 | 4361 ft | 26 kts | 203° |
| 2026-05-05 00:52 | 27.69328 | 85.35648 | 4366 ft | 27 kts | 203° |
| 2026-05-05 00:53 | 27.69218 | 85.35601 | 4348 ft | 16 kts | 200° |
| 2026-05-05 00:53 | 27.69147 | 85.35571 | 4353 ft | 0 kts | 201° |
| 2026-05-05 01:03 | 27.69148 | 85.35571 | 4355 ft | 0 kts | 201° |
| 2026-05-05 01:04 | 27.69143 | 85.35569 | 4348 ft | 5 kts | 201° |
| 2026-05-05 01:05 | 27.69139 | 85.35567 | 4342 ft | 2 kts | 201° |
| 2026-05-05 01:05 | 27.69102 | 85.35556 | 4340 ft | 0 kts | 181° |
| 2026-05-05 01:06 | 27.69101 | 85.35556 | 4340 ft | 1 kts | 181° |
| 2026-05-05 01:07 | 27.69088 | 85.35560 | 4349 ft | 6 kts | 151° |
| 2026-05-05 01:07 | 27.69030 | 85.35614 | 4346 ft | 14 kts | 165° |
| 2026-05-05 01:07 | 27.68911 | 85.35563 | 4345 ft | 24 kts | 213° |
| 2026-05-05 01:07 | 27.68718 | 85.35483 | 4335 ft | 36 kts | 201° |
| 2026-05-05 01:08 | 27.68544 | 85.35404 | 4328 ft | 18 kts | 198° |
| 2026-05-05 01:08 | 27.68473 | 85.35354 | 4325 ft | 4 kts | 228° |
| 2026-05-05 01:08 | 27.68472 | 85.35354 | 4325 ft | 0 kts | 229° |
| 2026-05-05 01:09 | 27.68446 | 85.35325 | 4319 ft | 10 kts | 211° |
| 2026-05-05 01:09 | 27.68404 | 85.35335 | 4322 ft | 1 kts | 96° |
| 2026-05-05 01:09 | 27.68421 | 85.35356 | 4323 ft | 7 kts | 30° |
| 2026-05-05 01:09 | 27.68494 | 85.35391 | 4323 ft | 34 kts | 21° |
| 2026-05-05 01:10 | 27.68972 | 85.35608 | 4341 ft | 111 kts | 22° |
| 2026-05-05 01:10 | 27.69881 | 85.36016 | 4451 ft | 162 kts | 22° |
| 2026-05-05 01:10 | 27.70963 | 85.36477 | 5153 ft | 170 kts | 21° |
| 2026-05-05 01:10 | 27.72056 | 85.37031 | 5948 ft | 173 kts | 30° |
| 2026-05-05 01:11 | 27.72997 | 85.37896 | 6486 ft | 184 kts | 48° |
| 2026-05-05 01:11 | 27.73761 | 85.39139 | 6832 ft | 202 kts | 65° |
| 2026-05-05 01:11 | 27.74128 | 85.40712 | 7151 ft | 222 kts | 91° |
| 2026-05-05 01:11 | 27.74035 | 85.42531 | 7478 ft | 243 kts | 95° |
| 2026-05-05 01:12 | 27.73703 | 85.44426 | 8039 ft | 249 kts | 114° |
| 2026-05-05 01:12 | 27.72697 | 85.46023 | 8708 ft | 254 kts | 141° |
| 2026-05-05 01:12 | 27.71158 | 85.46986 | 9499 ft | 254 kts | 161° |
| 2026-05-05 01:12 | 27.69439 | 85.47713 | 9965 ft | 276 kts | 159° |
| 2026-05-05 01:13 | 27.67578 | 85.48602 | 10153 ft | 304 kts | 152° |
| 2026-05-05 01:13 | 27.65790 | 85.49969 | 10387 ft | 327 kts | 139° |
| 2026-05-05 01:13 | 27.64209 | 85.51927 | 10711 ft | 345 kts | 125° |
| 2026-05-05 01:13 | 27.63058 | 85.54316 | 11414 ft | 349 kts | 111° |
| 2026-05-05 01:14 | 27.62330 | 85.56914 | 12142 ft | 353 kts | 106° |
| 2026-05-05 01:14 | 27.61618 | 85.59587 | 12856 ft | 358 kts | 107° |
| 2026-05-05 01:14 | 27.60882 | 85.62308 | 13570 ft | 363 kts | 107° |
| 2026-05-05 01:14 | 27.60144 | 85.65041 | 14267 ft | 366 kts | 107° |
| 2026-05-05 01:15 | 27.59394 | 85.67828 | 14817 ft | 373 kts | 107° |
| 2026-05-05 01:15 | 27.58468 | 85.70582 | 15438 ft | 378 kts | 115° |
| 2026-05-05 01:15 | 27.58051 | 85.71549 | 15633 ft | 379 kts | 118° |
| 2026-05-05 01:15 | 27.56873 | 85.73788 | 16193 ft | 384 kts | 125° |
| 2026-05-05 01:16 | 27.55572 | 85.75725 | 16668 ft | 387 kts | 131° |
| 2026-05-05 01:16 | 27.55140 | 85.76281 | 16821 ft | 388 kts | 134° |
| 2026-05-05 01:16 | 27.53824 | 85.77773 | 17210 ft | 390 kts | 139° |
| 2026-05-05 01:16 | 27.51766 | 85.79816 | 17732 ft | 395 kts | 141° |
| 2026-05-05 01:17 | 27.49686 | 85.81866 | 18311 ft | 400 kts | 141° |
| 2026-05-05 01:17 | 27.47589 | 85.83946 | 18846 ft | 403 kts | 141° |
| 2026-05-05 01:17 | 27.45480 | 85.86048 | 19407 ft | 406 kts | 141° |
| 2026-05-05 01:17 | 27.43357 | 85.88169 | 19948 ft | 409 kts | 141° |
| 2026-05-05 01:18 | 27.41223 | 85.90304 | 20460 ft | 411 kts | 141° |
| 2026-05-05 01:18 | 27.39076 | 85.92453 | 21006 ft | 414 kts | 141° |
| 2026-05-05 01:18 | 27.36914 | 85.94616 | 21504 ft | 417 kts | 142° |
| 2026-05-05 01:18 | 27.34734 | 85.96794 | 21968 ft | 421 kts | 142° |
| 2026-05-05 01:19 | 27.32563 | 85.98962 | 22504 ft | 423 kts | 142° |
| 2026-05-05 01:19 | 27.30351 | 86.01168 | 22911 ft | 428 kts | 142° |
| 2026-05-05 01:19 | 27.28118 | 86.03392 | 23386 ft | 430 kts | 142° |
| 2026-05-05 01:19 | 27.25869 | 86.05633 | 23847 ft | 433 kts | 142° |
| 2026-05-05 01:20 | 27.23608 | 86.07887 | 24270 ft | 436 kts | 142° |
| 2026-05-05 01:20 | 27.21336 | 86.10161 | 24684 ft | 439 kts | 141° |
| 2026-05-05 01:20 | 27.19221 | 86.12666 | 25132 ft | 444 kts | 133° |
| 2026-05-05 01:20 | 27.17369 | 86.15468 | 25481 ft | 450 kts | 128° |
| 2026-05-05 01:21 | 27.15583 | 86.18368 | 25854 ft | 453 kts | 128° |
| 2026-05-05 01:21 | 27.13770 | 86.21298 | 26181 ft | 457 kts | 128° |
| 2026-05-05 01:21 | 27.11946 | 86.24236 | 26563 ft | 459 kts | 129° |
| 2026-05-05 01:21 | 27.10104 | 86.27198 | 26791 ft | 466 kts | 129° |
| 2026-05-05 01:22 | 27.08270 | 86.30144 | 27190 ft | 467 kts | 129° |
| 2026-05-05 01:22 | 27.06402 | 86.33140 | 27527 ft | 469 kts | 129° |
| 2026-05-05 01:22 | 27.04527 | 86.36144 | 27900 ft | 471 kts | 129° |
| 2026-05-05 01:22 | 27.02640 | 86.39165 | 28094 ft | 475 kts | 129° |
| 2026-05-05 01:23 | 27.00736 | 86.42211 | 28434 ft | 477 kts | 129° |
| 2026-05-05 01:23 | 26.98825 | 86.45270 | 28729 ft | 480 kts | 130° |
| 2026-05-05 01:23 | 26.96900 | 86.48348 | 29021 ft | 482 kts | 130° |
| 2026-05-05 01:23 | 26.94996 | 86.51391 | 29374 ft | 484 kts | 130° |
| 2026-05-05 01:24 | 26.93053 | 86.54493 | 29599 ft | 487 kts | 130° |
| 2026-05-05 01:24 | 26.91098 | 86.57611 | 29903 ft | 489 kts | 130° |
| 2026-05-05 01:24 | 26.89128 | 86.60748 | 30118 ft | 493 kts | 130° |
| 2026-05-05 01:24 | 26.87142 | 86.63906 | 30352 ft | 495 kts | 130° |
| 2026-05-05 01:25 | 26.85153 | 86.67065 | 30615 ft | 497 kts | 130° |
| 2026-05-05 01:25 | 26.83147 | 86.70234 | 30799 ft | 501 kts | 131° |
| 2026-05-05 01:25 | 26.81123 | 86.73427 | 30970 ft | 505 kts | 131° |
| 2026-05-05 01:25 | 26.79088 | 86.76636 | 31271 ft | 505 kts | 131° |
| 2026-05-05 01:26 | 26.77077 | 86.79807 | 31620 ft | 505 kts | 131° |
| 2026-05-05 01:26 | 26.75041 | 86.83014 | 31938 ft | 504 kts | 131° |
| 2026-05-05 01:26 | 26.73007 | 86.86216 | 32249 ft | 504 kts | 131° |
| 2026-05-05 01:26 | 26.70974 | 86.89413 | 32539 ft | 503 kts | 132° |
| 2026-05-05 01:27 | 26.68944 | 86.92603 | 32843 ft | 503 kts | 132° |
| 2026-05-05 01:27 | 26.66915 | 86.95789 | 33124 ft | 503 kts | 132° |
| 2026-05-05 01:27 | 26.64884 | 86.98976 | 33351 ft | 503 kts | 132° |
| 2026-05-05 01:27 | 26.62855 | 87.02157 | 33632 ft | 502 kts | 132° |
| 2026-05-05 01:28 | 26.60828 | 87.05333 | 33897 ft | 502 kts | 132° |
| 2026-05-05 01:28 | 26.58828 | 87.08466 | 34102 ft | 501 kts | 132° |
| 2026-05-05 01:28 | 26.56803 | 87.11635 | 34325 ft | 501 kts | 132° |
| 2026-05-05 01:28 | 26.54777 | 87.14803 | 34547 ft | 500 kts | 132° |
| 2026-05-05 01:29 | 26.52756 | 87.17961 | 34751 ft | 499 kts | 133° |
| 2026-05-05 01:29 | 26.50701 | 87.21069 | 34978 ft | 493 kts | 138° |
| 2026-05-05 01:29 | 26.48311 | 87.23744 | 35168 ft | 480 kts | 149° |
| 2026-05-05 01:29 | 26.45600 | 87.25836 | 35328 ft | 468 kts | 159° |
| 2026-05-05 01:30 | 26.42684 | 87.27325 | 35508 ft | 456 kts | 168° |
| 2026-05-05 01:30 | 26.39708 | 87.28561 | 35696 ft | 456 kts | 168° |
| 2026-05-05 01:30 | 26.36737 | 87.29805 | 35905 ft | 456 kts | 167° |
| 2026-05-05 01:30 | 26.33754 | 87.30951 | 36115 ft | 451 kts | 171° |
| 2026-05-05 01:31 | 26.30752 | 87.31972 | 36303 ft | 451 kts | 171° |
| 2026-05-05 01:31 | 26.27755 | 87.32993 | 36499 ft | 450 kts | 171° |
| 2026-05-05 01:31 | 26.24760 | 87.34016 | 36688 ft | 450 kts | 171° |
| 2026-05-05 01:31 | 26.21763 | 87.35040 | 36830 ft | 450 kts | 171° |
| 2026-05-05 01:32 | 26.18800 | 87.36050 | 36941 ft | 452 kts | 171° |
| 2026-05-05 01:32 | 26.15791 | 87.37076 | 37127 ft | 452 kts | 171° |
| 2026-05-05 01:32 | 26.12788 | 87.38102 | 37321 ft | 451 kts | 171° |
| 2026-05-05 01:32 | 26.09784 | 87.39127 | 37505 ft | 451 kts | 171° |
| 2026-05-05 01:33 | 26.06778 | 87.40152 | 37682 ft | 451 kts | 171° |
| 2026-05-05 01:33 | 26.03774 | 87.41175 | 37860 ft | 450 kts | 171° |
| 2026-05-05 01:33 | 26.00777 | 87.42196 | 38025 ft | 450 kts | 171° |
| 2026-05-05 01:33 | 25.97786 | 87.43213 | 38187 ft | 450 kts | 171° |
| 2026-05-05 01:34 | 25.94797 | 87.44230 | 38342 ft | 449 kts | 171° |
| 2026-05-05 01:34 | 25.91838 | 87.45236 | 38466 ft | 449 kts | 171° |
| 2026-05-05 01:34 | 25.85829 | 87.47274 | 38618 ft | 452 kts | 171° |
| 2026-05-05 01:35 | 25.82820 | 87.48296 | 38742 ft | 451 kts | 171° |
| 2026-05-05 01:35 | 25.79818 | 87.49315 | 38862 ft | 451 kts | 171° |
| 2026-05-05 01:35 | 25.73808 | 87.51352 | 38906 ft | 451 kts | 171° |
| 2026-05-05 01:36 | 25.67857 | 87.53368 | 38903 ft | 450 kts | 170° |
| 2026-05-05 01:36 | 25.61992 | 87.56016 | 38886 ft | 461 kts | 159° |
| 2026-05-05 01:37 | 25.56507 | 87.59898 | 38904 ft | 475 kts | 148° |
| 2026-05-05 01:37 | 25.52218 | 87.63745 | 38909 ft | 476 kts | 147° |
| 2026-05-05 01:38 | 25.47057 | 87.68348 | 38909 ft | 476 kts | 148° |
| 2026-05-05 01:38 | 25.41887 | 87.72940 | 38894 ft | 476 kts | 147° |
| 2026-05-05 01:39 | 25.36716 | 87.77526 | 38886 ft | 476 kts | 147° |
| 2026-05-05 01:39 | 25.31545 | 87.82109 | 38891 ft | 476 kts | 147° |
| 2026-05-05 01:40 | 25.26370 | 87.86691 | 38889 ft | 476 kts | 147° |
| 2026-05-05 01:40 | 25.21193 | 87.91268 | 38889 ft | 476 kts | 148° |
| 2026-05-05 01:41 | 25.16048 | 87.95812 | 38889 ft | 476 kts | 148° |
| 2026-05-05 01:41 | 25.10869 | 88.00381 | 38891 ft | 477 kts | 148° |
| 2026-05-05 01:42 | 25.05680 | 88.04954 | 38888 ft | 477 kts | 148° |
| 2026-05-05 01:42 | 25.00496 | 88.09517 | 38874 ft | 477 kts | 147° |
| 2026-05-05 01:43 | 24.95315 | 88.14072 | 38890 ft | 477 kts | 147° |
| 2026-05-05 01:43 | 24.90157 | 88.18603 | 38883 ft | 477 kts | 147° |
| 2026-05-05 01:44 | 24.85047 | 88.23282 | 38893 ft | 478 kts | 145° |
| 2026-05-05 01:44 | 24.79984 | 88.28051 | 38892 ft | 478 kts | 145° |
| 2026-05-05 01:45 | 24.74907 | 88.32791 | 38878 ft | 478 kts | 146° |
| 2026-05-05 01:45 | 24.69852 | 88.37489 | 38888 ft | 478 kts | 146° |
| 2026-05-05 01:46 | 24.64769 | 88.42207 | 38887 ft | 478 kts | 145° |
| 2026-05-05 01:46 | 24.59689 | 88.46918 | 38888 ft | 477 kts | 145° |
| 2026-05-05 01:47 | 24.54605 | 88.51626 | 38883 ft | 477 kts | 145° |
| 2026-05-05 01:47 | 24.49523 | 88.56325 | 38883 ft | 477 kts | 145° |
| 2026-05-05 01:48 | 24.44937 | 88.61592 | 38879 ft | 486 kts | 130° |
| 2026-05-05 01:48 | 24.41659 | 88.68138 | 38870 ft | 495 kts | 114° |
| 2026-05-05 01:49 | 24.39299 | 88.75241 | 38870 ft | 495 kts | 113° |
| 2026-05-05 01:49 | 24.36916 | 88.82338 | 38880 ft | 495 kts | 113° |
| 2026-05-05 01:50 | 24.34527 | 88.89426 | 38880 ft | 495 kts | 113° |
| 2026-05-05 01:50 | 24.32138 | 88.96508 | 38883 ft | 495 kts | 113° |
| 2026-05-05 01:51 | 24.29743 | 89.03599 | 38888 ft | 495 kts | 113° |
| 2026-05-05 01:51 | 24.27358 | 89.10646 | 38893 ft | 495 kts | 113° |
| 2026-05-05 01:52 | 24.24955 | 89.17733 | 38888 ft | 495 kts | 113° |
| 2026-05-05 01:52 | 24.22546 | 89.24823 | 38892 ft | 496 kts | 113° |
| 2026-05-05 01:53 | 24.20151 | 89.31858 | 38892 ft | 496 kts | 113° |
| 2026-05-05 01:53 | 24.17733 | 89.38943 | 38895 ft | 496 kts | 113° |
| 2026-05-05 01:54 | 24.15319 | 89.46009 | 38900 ft | 496 kts | 113° |
| 2026-05-05 01:54 | 24.12897 | 89.53091 | 38893 ft | 496 kts | 113° |
| 2026-05-05 01:55 | 24.10463 | 89.60095 | 38896 ft | 495 kts | 114° |
| 2026-05-05 01:55 | 24.07910 | 89.67096 | 38899 ft | 495 kts | 115° |
| 2026-05-05 01:56 | 24.05357 | 89.74099 | 38907 ft | 495 kts | 114° |
| 2026-05-05 01:56 | 24.02815 | 89.81096 | 38905 ft | 494 kts | 114° |
| 2026-05-05 01:57 | 24.00289 | 89.88047 | 38896 ft | 494 kts | 114° |
| 2026-05-05 01:57 | 23.97749 | 89.95026 | 38899 ft | 494 kts | 114° |
| 2026-05-05 01:58 | 23.95253 | 90.02028 | 38897 ft | 494 kts | 112° |
| 2026-05-05 01:58 | 23.92964 | 90.09135 | 38891 ft | 494 kts | 111° |
| 2026-05-05 01:59 | 23.90676 | 90.16215 | 38892 ft | 494 kts | 112° |
| 2026-05-05 01:59 | 23.88372 | 90.23245 | 38902 ft | 494 kts | 112° |
| 2026-05-05 02:00 | 23.86039 | 90.30331 | 38906 ft | 494 kts | 112° |
| 2026-05-05 02:00 | 23.83545 | 90.37307 | 38903 ft | 491 kts | 121° |
| 2026-05-05 02:01 | 23.79744 | 90.43347 | 38896 ft | 482 kts | 137° |
| 2026-05-05 02:01 | 23.74773 | 90.48182 | 38881 ft | 478 kts | 145° |
| 2026-05-05 02:02 | 23.69620 | 90.52817 | 38910 ft | 479 kts | 144° |
| 2026-05-05 02:02 | 23.64506 | 90.57425 | 38908 ft | 479 kts | 144° |
| 2026-05-05 02:03 | 23.59363 | 90.62049 | 38897 ft | 479 kts | 144° |
| 2026-05-05 02:03 | 23.54217 | 90.66670 | 38889 ft | 479 kts | 144° |
| 2026-05-05 02:04 | 23.49065 | 90.71290 | 38885 ft | 479 kts | 144° |
| 2026-05-05 02:04 | 23.43915 | 90.75911 | 38883 ft | 478 kts | 144° |
| 2026-05-05 02:05 | 23.38805 | 90.80490 | 38881 ft | 478 kts | 144° |
| 2026-05-05 02:05 | 23.33671 | 90.85087 | 38882 ft | 478 kts | 144° |
| 2026-05-05 02:06 | 23.28555 | 90.89671 | 38873 ft | 477 kts | 144° |
| 2026-05-05 02:06 | 23.23427 | 90.94265 | 38872 ft | 477 kts | 144° |
| 2026-05-05 02:07 | 23.18321 | 90.98832 | 38873 ft | 477 kts | 144° |
| 2026-05-05 02:07 | 23.13230 | 91.03455 | 38868 ft | 477 kts | 143° |
| 2026-05-05 02:08 | 23.08149 | 91.08120 | 38863 ft | 477 kts | 143° |
| 2026-05-05 02:08 | 23.03099 | 91.12738 | 38866 ft | 476 kts | 143° |
| 2026-05-05 02:09 | 22.98026 | 91.17365 | 38869 ft | 476 kts | 143° |
| 2026-05-05 02:09 | 22.92949 | 91.21991 | 38869 ft | 476 kts | 143° |
| 2026-05-05 02:10 | 22.87867 | 91.26617 | 38869 ft | 476 kts | 143° |
| 2026-05-05 02:10 | 22.82818 | 91.31209 | 38874 ft | 476 kts | 143° |
| 2026-05-05 02:11 | 22.77737 | 91.35825 | 38871 ft | 476 kts | 143° |
| 2026-05-05 02:11 | 22.72657 | 91.40434 | 38875 ft | 476 kts | 143° |
| 2026-05-05 02:12 | 22.65067 | 91.47314 | 38875 ft | 476 kts | 143° |
| 2026-05-05 02:13 | 22.59982 | 91.51918 | 38875 ft | 476 kts | 143° |
| 2026-05-05 02:13 | 22.54892 | 91.56519 | 38877 ft | 476 kts | 143° |
| 2026-05-05 02:14 | 22.49832 | 91.61086 | 38879 ft | 476 kts | 143° |
| 2026-05-05 02:14 | 22.44741 | 91.65676 | 38877 ft | 476 kts | 143° |
| 2026-05-05 02:15 | 22.39655 | 91.70257 | 38891 ft | 475 kts | 142° |
| 2026-05-05 02:15 | 22.34564 | 91.74839 | 38892 ft | 475 kts | 143° |
| 2026-05-05 02:16 | 22.29714 | 91.79645 | 38888 ft | 478 kts | 131° |
| 2026-05-05 02:16 | 22.26355 | 91.85840 | 38880 ft | 481 kts | 111° |
| 2026-05-05 02:17 | 22.25038 | 91.92897 | 38879 ft | 481 kts | 94° |
| 2026-05-05 02:17 | 22.24550 | 92.00102 | 38887 ft | 481 kts | 94° |
| 2026-05-05 02:18 | 22.24039 | 92.07261 | 38887 ft | 481 kts | 94° |
| 2026-05-05 02:18 | 22.23519 | 92.14469 | 38888 ft | 481 kts | 94° |
| 2026-05-05 02:19 | 22.22997 | 92.21684 | 38889 ft | 481 kts | 94° |
| 2026-05-05 02:19 | 22.22473 | 92.28885 | 38889 ft | 481 kts | 94° |
| 2026-05-05 02:20 | 22.21961 | 92.36052 | 38887 ft | 476 kts | 94° |
| 2026-05-05 02:20 | 22.21458 | 92.43148 | 38889 ft | 478 kts | 94° |
| 2026-05-05 02:21 | 22.20946 | 92.50300 | 38892 ft | 477 kts | 94° |
| 2026-05-05 02:21 | 22.20433 | 92.57418 | 38892 ft | 477 kts | 94° |
| 2026-05-05 02:22 | 22.19912 | 92.64574 | 38897 ft | 477 kts | 94° |
| 2026-05-05 02:22 | 22.19391 | 92.71715 | 38900 ft | 475 kts | 95° |
| 2026-05-05 02:23 | 22.18872 | 92.78762 | 38912 ft | 474 kts | 95° |
| 2026-05-05 02:23 | 22.18347 | 92.85859 | 38914 ft | 474 kts | 95° |
| 2026-05-05 02:24 | 22.17818 | 92.92959 | 38925 ft | 475 kts | 95° |
| 2026-05-05 02:24 | 22.17285 | 93.00065 | 38928 ft | 474 kts | 95° |
| 2026-05-05 02:25 | 22.16755 | 93.07105 | 38938 ft | 473 kts | 95° |
| 2026-05-05 02:25 | 22.16214 | 93.14248 | 38937 ft | 479 kts | 95° |
| 2026-05-05 02:26 | 22.15668 | 93.21422 | 38956 ft | 478 kts | 95° |
| 2026-05-05 02:26 | 22.15121 | 93.28548 | 38958 ft | 478 kts | 95° |
| 2026-05-05 02:27 | 22.14662 | 93.34498 | 38958 ft | 479 kts | 95° |
| 2026-05-05 02:27 | 22.14106 | 93.41680 | 38963 ft | 479 kts | 95° |
| 2026-05-05 02:28 | 22.13547 | 93.48843 | 38959 ft | 478 kts | 95° |
| 2026-05-05 02:28 | 22.12990 | 93.55951 | 38942 ft | 478 kts | 95° |
| 2026-05-05 02:29 | 22.12428 | 93.63086 | 38933 ft | 476 kts | 95° |
| 2026-05-05 02:29 | 22.11864 | 93.70208 | 38930 ft | 475 kts | 96° |
| 2026-05-05 02:30 | 22.11297 | 93.77310 | 38946 ft | 479 kts | 96° |
| 2026-05-05 02:30 | 22.10724 | 93.84461 | 38932 ft | 478 kts | 95° |
| 2026-05-05 02:31 | 22.10148 | 93.91599 | 38933 ft | 478 kts | 95° |
| 2026-05-05 02:31 | 22.09570 | 93.98737 | 38905 ft | 478 kts | 95° |
| 2026-05-05 02:32 | 22.08988 | 94.05875 | 38906 ft | 478 kts | 95° |
| 2026-05-05 02:32 | 22.08403 | 94.13016 | 38893 ft | 478 kts | 95° |
| 2026-05-05 02:33 | 22.07821 | 94.20090 | 38535 ft | 476 kts | 95° |
| 2026-05-05 02:33 | 22.07524 | 94.23677 | 37618 ft | 483 kts | 95° |
| 2026-05-05 02:33 | 22.07222 | 94.27320 | 36608 ft | 491 kts | 95° |
| 2026-05-05 02:33 | 22.06915 | 94.31008 | 35419 ft | 500 kts | 95° |
| 2026-05-05 02:34 | 22.06601 | 94.34777 | 34370 ft | 508 kts | 95° |
| 2026-05-05 02:34 | 22.06282 | 94.38594 | 33372 ft | 512 kts | 96° |
| 2026-05-05 02:34 | 22.05962 | 94.42409 | 32601 ft | 509 kts | 96° |
| 2026-05-05 02:34 | 22.05645 | 94.46197 | 32082 ft | 503 kts | 96° |
| 2026-05-05 02:35 | 22.05332 | 94.49903 | 31262 ft | 503 kts | 96° |
| 2026-05-05 02:35 | 22.05013 | 94.53677 | 30399 ft | 506 kts | 96° |
| 2026-05-05 02:35 | 22.04694 | 94.57443 | 29741 ft | 502 kts | 96° |
| 2026-05-05 02:35 | 22.04378 | 94.61162 | 29287 ft | 493 kts | 96° |
| 2026-05-05 02:36 | 22.04068 | 94.64800 | 28923 ft | 482 kts | 96° |
| 2026-05-05 02:36 | 22.03762 | 94.68388 | 28089 ft | 482 kts | 96° |
| 2026-05-05 02:36 | 22.03452 | 94.71998 | 27294 ft | 483 kts | 96° |
| 2026-05-05 02:36 | 22.03144 | 94.75582 | 26776 ft | 476 kts | 96° |
| 2026-05-05 02:37 | 22.02842 | 94.79091 | 26499 ft | 465 kts | 96° |
| 2026-05-05 02:37 | 22.02544 | 94.82542 | 25927 ft | 462 kts | 96° |
| 2026-05-05 02:37 | 22.02244 | 94.86010 | 25096 ft | 466 kts | 96° |
| 2026-05-05 02:37 | 22.01944 | 94.89479 | 24503 ft | 463 kts | 96° |
| 2026-05-05 02:38 | 22.01646 | 94.92904 | 24169 ft | 453 kts | 96° |
| 2026-05-05 02:38 | 22.01180 | 94.96237 | 23668 ft | 448 kts | 103° |
| 2026-05-05 02:38 | 22.00345 | 94.99491 | 22784 ft | 452 kts | 109° |
| 2026-05-05 02:38 | 21.99390 | 95.02673 | 22075 ft | 450 kts | 109° |
| 2026-05-05 02:39 | 21.98448 | 95.05860 | 21653 ft | 441 kts | 109° |
| 2026-05-05 02:39 | 21.97536 | 95.08966 | 21303 ft | 431 kts | 109° |
| 2026-05-05 02:39 | 21.96632 | 95.12044 | 20498 ft | 433 kts | 109° |
| 2026-05-05 02:39 | 21.95721 | 95.15146 | 19772 ft | 434 kts | 109° |
| 2026-05-05 02:40 | 21.94817 | 95.18223 | 19333 ft | 426 kts | 109° |
| 2026-05-05 02:40 | 21.93933 | 95.21229 | 18972 ft | 417 kts | 109° |
| 2026-05-05 02:40 | 21.93055 | 95.24210 | 18214 ft | 420 kts | 109° |
| 2026-05-05 02:40 | 21.92168 | 95.27219 | 17402 ft | 421 kts | 109° |
| 2026-05-05 02:41 | 21.91287 | 95.30205 | 16893 ft | 414 kts | 109° |
| 2026-05-05 02:41 | 21.90437 | 95.33086 | 16623 ft | 402 kts | 109° |
| 2026-05-05 02:41 | 21.89598 | 95.35931 | 16057 ft | 398 kts | 109° |
| 2026-05-05 02:41 | 21.88753 | 95.38787 | 15273 ft | 401 kts | 109° |
| 2026-05-05 02:42 | 21.87908 | 95.41642 | 14785 ft | 396 kts | 109° |
| 2026-05-05 02:42 | 21.87085 | 95.44424 | 14515 ft | 384 kts | 109° |
| 2026-05-05 02:42 | 21.86290 | 95.47110 | 13960 ft | 382 kts | 109° |
| 2026-05-05 02:42 | 21.85475 | 95.49856 | 13165 ft | 387 kts | 109° |
| 2026-05-05 02:43 | 21.84659 | 95.52605 | 12635 ft | 382 kts | 109° |
| 2026-05-05 02:43 | 21.83868 | 95.55271 | 12338 ft | 364 kts | 109° |
| 2026-05-05 02:43 | 21.83108 | 95.57835 | 11933 ft | 358 kts | 109° |
| 2026-05-05 02:43 | 21.82343 | 95.60405 | 11167 ft | 361 kts | 109° |
| 2026-05-05 02:44 | 21.81587 | 95.62947 | 10676 ft | 351 kts | 109° |
| 2026-05-05 02:44 | 21.80859 | 95.65397 | 10495 ft | 336 kts | 109° |
| 2026-05-05 02:44 | 21.80165 | 95.67732 | 10339 ft | 318 kts | 109° |
| 2026-05-05 02:44 | 21.79507 | 95.69946 | 10035 ft | 306 kts | 109° |
| 2026-05-05 02:45 | 21.78859 | 95.72118 | 9688 ft | 304 kts | 109° |
| 2026-05-05 02:45 | 21.78244 | 95.74274 | 9345 ft | 301 kts | 103° |
| 2026-05-05 02:45 | 21.78241 | 95.76517 | 8910 ft | 302 kts | 77° |
| 2026-05-05 02:45 | 21.79088 | 95.78564 | 8491 ft | 300 kts | 53° |
| 2026-05-05 02:46 | 21.80606 | 95.80025 | 8087 ft | 297 kts | 27° |
| 2026-05-05 02:46 | 21.82509 | 95.80876 | 7677 ft | 295 kts | 19° |
| 2026-05-05 02:46 | 21.84436 | 95.81640 | 7282 ft | 295 kts | 19° |
| 2026-05-05 02:46 | 21.86361 | 95.82402 | 6880 ft | 294 kts | 19° |
| 2026-05-05 02:47 | 21.88272 | 95.83152 | 6646 ft | 288 kts | 19° |
| 2026-05-05 02:47 | 21.90160 | 95.83894 | 6612 ft | 292 kts | 19° |
| 2026-05-05 02:47 | 21.92072 | 95.84645 | 6614 ft | 291 kts | 19° |
| 2026-05-05 02:47 | 21.93977 | 95.85392 | 6622 ft | 292 kts | 19° |
| 2026-05-05 02:48 | 21.95885 | 95.86142 | 6613 ft | 291 kts | 19° |
| 2026-05-05 02:48 | 21.97669 | 95.87143 | 6618 ft | 290 kts | 40° |
| 2026-05-05 02:48 | 21.98906 | 95.88852 | 6620 ft | 292 kts | 66° |
| 2026-05-05 02:48 | 21.99340 | 95.90962 | 6613 ft | 290 kts | 92° |
| 2026-05-05 02:49 | 21.98886 | 95.93037 | 6623 ft | 281 kts | 119° |
| 2026-05-05 02:49 | 21.97695 | 95.94582 | 6609 ft | 260 kts | 146° |
| 2026-05-05 02:49 | 21.96132 | 95.95396 | 6611 ft | 242 kts | 168° |
| 2026-05-05 02:49 | 21.94433 | 95.95556 | 6619 ft | 245 kts | 185° |
| 2026-05-05 02:50 | 21.92784 | 95.95467 | 6617 ft | 242 kts | 184° |
| 2026-05-05 02:50 | 21.91070 | 95.95397 | 6614 ft | 248 kts | 183° |
| 2026-05-05 02:50 | 21.89353 | 95.95340 | 6613 ft | 246 kts | 183° |
| 2026-05-05 02:50 | 21.87644 | 95.95287 | 6609 ft | 241 kts | 183° |
| 2026-05-05 02:51 | 21.86051 | 95.95243 | 6607 ft | 216 kts | 182° |
| 2026-05-05 02:51 | 21.84630 | 95.95278 | 6606 ft | 194 kts | 178° |
| 2026-05-05 02:51 | 21.83267 | 95.95428 | 6572 ft | 200 kts | 174° |
| 2026-05-05 02:51 | 21.81889 | 95.95667 | 6031 ft | 205 kts | 171° |
| 2026-05-05 02:52 | 21.80426 | 95.95911 | 5026 ft | 224 kts | 175° |
| 2026-05-05 02:52 | 21.78930 | 95.96218 | 4614 ft | 214 kts | 162° |
| 2026-05-05 02:52 | 21.77563 | 95.96462 | 4624 ft | 188 kts | 192° |
| 2026-05-05 02:52 | 21.76420 | 95.95769 | 4981 ft | 196 kts | 230° |
| 2026-05-05 02:53 | 21.75667 | 95.94564 | 5338 ft | 193 kts | 239° |
| 2026-05-05 02:53 | 21.74979 | 95.93331 | 5566 ft | 192 kts | 239° |
| 2026-05-05 02:53 | 21.74300 | 95.92094 | 5518 ft | 193 kts | 239° |
| 2026-05-05 02:53 | 21.73908 | 95.90730 | 5213 ft | 196 kts | 271° |
| 2026-05-05 02:54 | 21.74356 | 95.89336 | 4695 ft | 205 kts | 308° |
| 2026-05-05 02:54 | 21.75537 | 95.88453 | 4097 ft | 215 kts | 343° |
| 2026-05-05 02:54 | 21.77025 | 95.88135 | 3501 ft | 221 kts | 350° |
| 2026-05-05 02:54 | 21.78571 | 95.87855 | 2850 ft | 230 kts | 350° |
| 2026-05-05 02:55 | 21.80139 | 95.87568 | 2522 ft | 224 kts | 350° |
| 2026-05-05 02:55 | 21.81624 | 95.87295 | 2408 ft | 207 kts | 350° |
| 2026-05-05 02:55 | 21.82978 | 95.87050 | 2404 ft | 191 kts | 350° |
| 2026-05-05 02:55 | 21.84366 | 95.86755 | 2986 ft | 208 kts | 347° |
| 2026-05-05 02:56 | 21.85993 | 95.86438 | 2795 ft | 256 kts | 352° |
| 2026-05-05 02:56 | 21.87688 | 95.86643 | 2716 ft | 240 kts | 25° |
| 2026-05-05 02:56 | 21.88846 | 95.87865 | 2405 ft | 237 kts | 62° |
| 2026-05-05 02:56 | 21.89358 | 95.89503 | 2213 ft | 232 kts | 81° |
| 2026-05-05 02:57 | 21.89337 | 95.91245 | 2030 ft | 232 kts | 101° |
| 2026-05-05 02:57 | 21.89024 | 95.92860 | 2098 ft | 212 kts | 112° |
| 2026-05-05 02:57 | 21.88080 | 95.93970 | 1966 ft | 206 kts | 159° |
| 2026-05-05 02:57 | 21.86643 | 95.94348 | 1511 ft | 216 kts | 170° |
| 2026-05-05 02:58 | 21.85159 | 95.94633 | 1213 ft | 217 kts | 171° |
| 2026-05-05 02:58 | 21.83778 | 95.94903 | 1221 ft | 184 kts | 169° |
| 2026-05-05 02:58 | 21.82611 | 95.95151 | 1144 ft | 161 kts | 169° |
| 2026-05-05 02:58 | 21.81554 | 95.95389 | 1041 ft | 157 kts | 166° |
| 2026-05-05 02:59 | 21.80496 | 95.95723 | 888 ft | 157 kts | 160° |
| 2026-05-05 02:59 | 21.79491 | 95.96110 | 878 ft | 153 kts | 165° |
| 2026-05-05 02:59 | 21.78417 | 95.96375 | 746 ft | 156 kts | 168° |
| 2026-05-05 02:59 | 21.77358 | 95.96583 | 686 ft | 155 kts | 171° |
| 2026-05-05 03:00 | 21.76290 | 95.96745 | 741 ft | 156 kts | 174° |
| 2026-05-05 03:00 | 21.75193 | 95.96874 | 715 ft | 162 kts | 172° |
| 2026-05-05 03:00 | 21.74073 | 95.97052 | 616 ft | 163 kts | 171° |
| 2026-05-05 03:00 | 21.72953 | 95.97248 | 476 ft | 158 kts | 172° |
| 2026-05-05 03:01 | 21.71926 | 95.97422 | 336 ft | 142 kts | 171° |
| 2026-05-05 03:01 | 21.70990 | 95.97585 | 287 ft | 127 kts | 167° |
| 2026-05-05 03:01 | 21.70274 | 95.97717 | 294 ft | 84 kts | 171° |
| 2026-05-05 03:01 | 21.69840 | 95.97775 | 294 ft | 38 kts | 189° |
| 2026-05-05 03:02 | 21.69652 | 95.97716 | 293 ft | 19 kts | 201° |
| 2026-05-05 03:02 | 21.69633 | 95.97622 | 296 ft | 16 kts | 330° |
| 2026-05-05 03:02 | 21.69718 | 95.97604 | 295 ft | 10 kts | 354° |
| 2026-05-05 03:02 | 21.69846 | 95.97582 | 295 ft | 29 kts | 349° |
| 2026-05-05 03:03 | 21.70059 | 95.97544 | 295 ft | 32 kts | 351° |
| 2026-05-05 03:03 | 21.70258 | 95.97510 | 293 ft | 18 kts | 350° |
| 2026-05-05 03:03 | 21.70337 | 95.97480 | 292 ft | 3 kts | 319° |
| 2026-05-05 03:03 | 21.70345 | 95.97381 | 291 ft | 19 kts | 266° |
| 2026-05-05 03:04 | 21.70418 | 95.97264 | 290 ft | 20 kts | 333° |
| 2026-05-05 03:04 | 21.70536 | 95.97227 | 291 ft | 17 kts | 353° |
| 2026-05-05 03:04 | 21.70622 | 95.97216 | 292 ft | 9 kts | 347° |
| 2026-05-05 03:04 | 21.70678 | 95.97201 | 292 ft | 2 kts | 345° |
| 2026-05-05 03:05 | 21.70692 | 95.97162 | 291 ft | 10 kts | 260° |
| 2026-05-05 03:05 | 21.70681 | 95.97108 | 293 ft | 5 kts | 259° |
| 2026-05-05 03:05 | 21.70679 | 95.97096 | 292 ft | 0 kts | 260° |